Time;durP1;ratioP1;P1;durP2;ratioP2;P2;SDS_P1;SDS_P2;PMS_P1;PMS_P2;Temp;Humidity;BMP_temperature;BMP_pressure;BME280_temperature;BME280_humidity;BME280_pressure;Samples;Min_cycle;Max_cycle;Signal;HPM_P1;HPM_P2
2023/06/26 00:01:24;;;;;;;8.7;7;;;;;;;16.94;66.06836;939.4252;;;;
2023/06/26 00:03:49;;;;;;;11.1;7.5;;;;;;;16.87;66.24219;939.4478;;;;
2023/06/26 00:06:15;;;;;;;9.6;7.2;;;;;;;16.9;66.26953;939.4272;;;;
2023/06/26 00:08:47;;;;;;;9.5;7.6;;;;;;;16.97;66.21094;939.4088;;;;
2023/06/26 00:11:12;;;;;;;9.2;6.6;;;;;;;17.02;66.46289;939.3705;;;;
2023/06/26 00:13:37;;;;;;;10.1;7.5;;;;;;;16.99;66.76855;939.4061;;;;
2023/06/26 00:16:44;;;;;;;9.6;7.1;;;;;;;16.78;67.39746;939.4012;;;;
2023/06/26 00:19:10;;;;;;;10.1;7.3;;;;;;;16.84;67.39648;939.3895;;;;
2023/06/26 00:21:35;;;;;;;8.4;6.7;;;;;;;16.57;68.36133;939.3645;;;;
2023/06/26 00:24:04;;;;;;;9.3;7.2;;;;;;;16.68;68.49414;939.3455;;;;
2023/06/26 00:26:29;;;;;;;8.9;7.1;;;;;;;16.76;68.18359;939.428;;;;
2023/06/26 00:28:57;;;;;;;9.8;7.3;;;;;;;16.38;68.93457;939.4155;;;;
2023/06/26 00:32:05;;;;;;;9.6;7.1;;;;;;;16.14;69.94922;939.3879;;;;
2023/06/26 00:34:30;;;;;;;9.2;6.8;;;;;;;16.2;70.25781;939.4052;;;;
2023/06/26 00:36:57;;;;;;;9.5;7.5;;;;;;;16.17;70.40234;939.3588;;;;
2023/06/26 00:39:25;;;;;;;8.8;6.7;;;;;;;16.24;69.86035;939.3906;;;;
2023/06/26 00:41:48;;;;;;;9.3;7.5;;;;;;;16.3;69.2793;939.4213;;;;
2023/06/26 00:44:14;;;;;;;10;7.7;;;;;;;16.37;69.56836;939.4092;;;;
2023/06/26 00:46:39;;;;;;;9.4;7;;;;;;;16.18;68.97266;939.353;;;;
2023/06/26 00:49:05;;;;;;;9.5;7.2;;;;;;;16.05;69.86328;939.3914;;;;
2023/06/26 00:51:30;;;;;;;10.3;7.9;;;;;;;16.25;69.11035;939.3663;;;;
2023/06/26 00:53:56;;;;;;;12.7;7.7;;;;;;;16.37;68.71191;939.4445;;;;
2023/06/26 00:56:21;;;;;;;10.3;6.8;;;;;;;16.37;68.80469;939.4461;;;;
2023/06/26 00:58:47;;;;;;;8;6.7;;;;;;;16.38;68.65723;939.4436;;;;
2023/06/26 01:01:17;;;;;;;9.4;7;;;;;;;16.39;68.64648;939.4235;;;;
2023/06/26 01:03:39;;;;;;;9.5;7.2;;;;;;;16.3;69.31348;939.4124;;;;
2023/06/26 01:06:02;;;;;;;9.9;7.4;;;;;;;16.07;70.45605;939.4763;;;;
2023/06/26 01:08:27;;;;;;;10.1;7.2;;;;;;;16.1;70.53125;939.4174;;;;
2023/06/26 01:10:52;;;;;;;9.6;6.9;;;;;;;16.12;70.39648;939.4099;;;;
2023/06/26 01:13:18;;;;;;;9.7;7;;;;;;;16;70.97949;939.3923;;;;
2023/06/26 01:15:43;;;;;;;9.4;7.1;;;;;;;15.91;71.4834;939.353;;;;
2023/06/26 01:18:08;;;;;;;11.2;7.5;;;;;;;15.83;71.95508;939.4004;;;;
2023/06/26 01:20:35;;;;;;;10.3;7.3;;;;;;;15.76;72.01465;939.4352;;;;
2023/06/26 01:23:00;;;;;;;8.9;7;;;;;;;15.84;71.69238;939.3336;;;;
2023/06/26 01:25:25;;;;;;;10.2;7.3;;;;;;;15.9;71.57617;939.3089;;;;
2023/06/26 01:27:50;;;;;;;9.6;7;;;;;;;16;71.32422;939.3353;;;;
2023/06/26 01:30:19;;;;;;;9.9;6.8;;;;;;;15.86;71.82227;939.2974;;;;
2023/06/26 01:32:43;;;;;;;10.7;7.6;;;;;;;15.91;71.22949;939.2615;;;;
2023/06/26 01:35:11;;;;;;;10.5;7.4;;;;;;;15.88;71.25977;939.2899;;;;
2023/06/26 01:37:36;;;;;;;9;6.7;;;;;;;15.59;72.45801;939.3264;;;;
2023/06/26 01:40:01;;;;;;;9.1;7.1;;;;;;;15.75;72.02441;939.2578;;;;
2023/06/26 01:42:26;;;;;;;9;7.1;;;;;;;15.72;72.35352;939.2533;;;;
2023/06/26 01:44:53;;;;;;;9.6;7.1;;;;;;;15.89;71.82617;939.2777;;;;
2023/06/26 01:47:18;;;;;;;9.6;7.1;;;;;;;15.92;71.82031;939.2405;;;;
2023/06/26 01:50:28;;;;;;;10.2;7.5;;;;;;;15.81;72.34668;939.193;;;;
2023/06/26 01:52:53;;;;;;;9.1;7.2;;;;;;;15.88;72.24219;939.2249;;;;
2023/06/26 01:55:22;;;;;;;10.6;7.9;;;;;;;15.9;72.47559;939.2431;;;;
2023/06/26 01:57:48;;;;;;;8.7;6.8;;;;;;;15.89;72.51074;939.2512;;;;
2023/06/26 02:01:13;;;;;;;10.3;7.3;;;;;;;15.79;73.10547;939.2487;;;;
2023/06/26 02:03:41;;;;;;;9.1;6.8;;;;;;;15.47;74.71582;939.3326;;;;
2023/06/26 02:06:06;;;;;;;9.7;7;;;;;;;15.61;74.0918;939.3222;;;;
2023/06/26 02:08:32;;;;;;;10.5;7.2;;;;;;;15.71;73.64648;939.2767;;;;
2023/06/26 02:10:57;;;;;;;11.3;7.4;;;;;;;15.69;73.89746;939.2784;;;;
2023/06/26 02:13:23;;;;;;;10;7.2;;;;;;;15.72;73.92676;939.2983;;;;
2023/06/26 02:15:48;;;;;;;9.4;7.1;;;;;;;15.57;74.30469;939.3688;;;;
2023/06/26 02:18:17;;;;;;;10.9;7.3;;;;;;;15.3;75.64258;939.3239;;;;
2023/06/26 02:20:43;;;;;;;9.1;7.1;;;;;;;15.44;75.06738;939.3417;;;;
2023/06/26 02:23:06;;;;;;;9.2;7;;;;;;;15.48;74.99414;939.3525;;;;
2023/06/26 02:25:31;;;;;;;10.2;6.6;;;;;;;15.46;75.05859;939.3423;;;;
2023/06/26 02:27:57;;;;;;;9.2;7.1;;;;;;;15.58;74.61719;939.3959;;;;
2023/06/26 02:30:22;;;;;;;9.9;6.6;;;;;;;15.45;75.03516;939.3784;;;;
2023/06/26 02:32:49;;;;;;;9.4;7.5;;;;;;;15.16;75.82813;939.4296;;;;
2023/06/26 02:35:16;;;;;;;9.1;7;;;;;;;15.2;75.82324;939.3226;;;;
2023/06/26 02:37:41;;;;;;;9.5;7.1;;;;;;;15.26;75.54395;939.2986;;;;
2023/06/26 02:40:10;;;;;;;10.5;7.4;;;;;;;15.18;76.13184;939.351;;;;
2023/06/26 02:42:40;;;;;;;9.6;7.1;;;;;;;15.36;75.30762;939.3091;;;;
2023/06/26 02:45:05;;;;;;;8.8;6.9;;;;;;;15.5;74.71973;939.3717;;;;
2023/06/26 02:47:39;;;;;;;9.6;7.2;;;;;;;15.3;75.33203;939.3423;;;;
2023/06/26 02:50:01;;;;;;;8.7;6.9;;;;;;;15.28;75.22363;939.3722;;;;
2023/06/26 02:52:29;;;;;;;9.2;6.8;;;;;;;15.44;74.37402;939.3577;;;;
2023/06/26 02:54:53;;;;;;;9;6.5;;;;;;;15.41;74.48535;939.4387;;;;
2023/06/26 02:57:20;;;;;;;9;6.7;;;;;;;15.29;75.13477;939.4242;;;;
2023/06/26 02:59:45;;;;;;;9.5;6.7;;;;;;;15.26;75.5791;939.4125;;;;
2023/06/26 03:02:11;;;;;;;9.8;7.3;;;;;;;15.23;75.89551;939.4841;;;;
2023/06/26 03:04:37;;;;;;;8.4;6.8;;;;;;;15.28;75.91602;939.4653;;;;
2023/06/26 03:07:03;;;;;;;8.3;7;;;;;;;15.14;76.59668;939.437;;;;
2023/06/26 03:09:28;;;;;;;10.7;7.3;;;;;;;14.94;77.69238;939.4731;;;;
2023/06/26 03:11:55;;;;;;;10.4;7.4;;;;;;;14.98;77.71191;939.4185;;;;
2023/06/26 03:14:26;;;;;;;9.3;7.1;;;;;;;14.91;77.99902;939.3851;;;;
2023/06/26 03:16:52;;;;;;;10.4;7.6;;;;;;;14.95;77.72852;939.4009;;;;
2023/06/26 03:19:15;;;;;;;10.2;7;;;;;;;15.06;77.2168;939.395;;;;
2023/06/26 03:21:40;;;;;;;10.3;7.4;;;;;;;15.13;76.69922;939.4347;;;;
2023/06/26 03:24:06;;;;;;;9.1;7.3;;;;;;;15.03;77.29297;939.4514;;;;
2023/06/26 03:26:32;;;;;;;9.4;6.9;;;;;;;14.95;77.64746;939.4017;;;;
2023/06/26 03:28:57;;;;;;;10.2;6.9;;;;;;;14.77;78.44629;939.4344;;;;
2023/06/26 03:31:23;;;;;;;10.3;7.3;;;;;;;14.83;78.6416;939.4329;;;;
2023/06/26 03:33:48;;;;;;;8.9;7.2;;;;;;;15.03;77.59473;939.4152;;;;
2023/06/26 03:36:15;;;;;;;12.6;7.3;;;;;;;14.98;78.08105;939.4;;;;
2023/06/26 03:38:40;;;;;;;8.6;6.8;;;;;;;14.97;77.93945;939.4048;;;;
2023/06/26 03:41:06;;;;;;;8.9;6.8;;;;;;;15.12;77.33203;939.4122;;;;
2023/06/26 03:43:31;;;;;;;9.6;7.1;;;;;;;15.16;77.15527;939.473;;;;
2023/06/26 03:45:56;;;;;;;10.8;6.7;;;;;;;15.2;77.09277;939.3861;;;;
2023/06/26 03:48:21;;;;;;;10.1;7.7;;;;;;;15.25;76.89258;939.4871;;;;
2023/06/26 03:50:47;;;;;;;8.9;6.8;;;;;;;15.23;76.99316;939.4656;;;;
2023/06/26 03:53:12;;;;;;;10.8;7.2;;;;;;;15.26;77.11523;939.455;;;;
2023/06/26 03:55:39;;;;;;;9.2;7;;;;;;;15.25;76.9502;939.4189;;;;
2023/06/26 03:58:04;;;;;;;10.7;6.9;;;;;;;15.14;77.64648;939.4763;;;;
2023/06/26 04:02:33;;;;;;;9.9;7.2;;;;;;;15.26;77.24023;939.443;;;;
2023/06/26 04:05:00;;;;;;;9.4;7.1;;;;;;;15.13;77.99121;939.3616;;;;
2023/06/26 04:07:25;;;;;;;10;6.9;;;;;;;15.13;78.05078;939.3849;;;;
2023/06/26 04:09:50;;;;;;;9.7;7;;;;;;;15.05;78.61328;939.4472;;;;
2023/06/26 04:12:15;;;;;;;10.8;7.8;;;;;;;14.98;78.95801;939.3975;;;;
2023/06/26 04:14:48;;;;;;;10.1;6.8;;;;;;;14.97;79.02344;939.4417;;;;
2023/06/26 04:17:16;;;;;;;10.9;7.5;;;;;;;14.86;79.4541;939.4769;;;;
2023/06/26 04:19:41;;;;;;;9.8;7;;;;;;;14.97;78.98926;939.4481;;;;
2023/06/26 04:22:09;;;;;;;9.4;7.2;;;;;;;15.08;78.98535;939.4695;;;;
2023/06/26 04:24:34;;;;;;;11.3;6.8;;;;;;;15.34;78.97656;939.468;;;;
2023/06/26 04:27:01;;;;;;;10.9;7.6;;;;;;;15.52;77.35742;939.5016;;;;
2023/06/26 04:29:26;;;;;;;12.3;7.4;;;;;;;15.53;77.18457;939.52;;;;
2023/06/26 04:31:51;;;;;;;13.9;7.6;;;;;;;15.4;77.60156;939.4476;;;;
2023/06/26 04:34:16;;;;;;;8.9;6.7;;;;;;;15.39;77.78418;939.4508;;;;
2023/06/26 04:36:47;;;;;;;12.3;7.5;;;;;;;15.58;77.2041;939.5027;;;;
2023/06/26 04:39:06;;;;;;;10.8;7.1;;;;;;;15.43;77.7793;939.4252;;;;
2023/06/26 04:41:31;;;;;;;10.6;7;;;;;;;15.53;77.51953;939.4766;;;;
2023/06/26 04:43:57;;;;;;;9.2;6.5;;;;;;;15.62;77.24707;939.4766;;;;
2023/06/26 04:46:22;;;;;;;10.4;7.3;;;;;;;15.82;77.00586;939.4606;;;;
2023/06/26 04:48:48;;;;;;;10;6.9;;;;;;;15.94;76.32129;939.4322;;;;
2023/06/26 04:51:13;;;;;;;10.6;6.9;;;;;;;15.9;76.29199;939.4182;;;;
2023/06/26 04:53:38;;;;;;;8.8;6.5;;;;;;;15.7;77.05273;939.4108;;;;
2023/06/26 04:56:03;;;;;;;11.3;7.1;;;;;;;15.85;77.05664;939.3206;;;;
2023/06/26 04:58:30;;;;;;;11.4;6.8;;;;;;;16.09;75.90723;939.2656;;;;
2023/06/26 05:00:55;;;;;;;10.6;7.4;;;;;;;16.28;76.25293;939.3378;;;;
2023/06/26 05:03:21;;;;;;;8.6;7.1;;;;;;;16.53;76.5498;939.3024;;;;
2023/06/26 05:05:48;;;;;;;9.5;6.6;;;;;;;16.95;74.34082;939.3197;;;;
2023/06/26 05:08:12;;;;;;;9.7;6.7;;;;;;;17.81;70.29688;939.3444;;;;
2023/06/26 05:10:39;;;;;;;9.6;6.3;;;;;;;18.86;66.16992;939.3334;;;;
2023/06/26 05:15:29;;;;;;;8.9;6.2;;;;;;;20.54;59.92676;939.3656;;;;
2023/06/26 05:17:54;;;;;;;8.1;5.8;;;;;;;21.26;56.47949;939.3441;;;;
2023/06/26 05:20:19;;;;;;;9.2;5.7;;;;;;;21.93;54.23242;939.2955;;;;
2023/06/26 05:22:45;;;;;;;8.3;5.7;;;;;;;22.25;53.36914;939.3359;;;;
2023/06/26 05:25:10;;;;;;;7.1;5.2;;;;;;;22.21;53.10645;939.3436;;;;
2023/06/26 05:27:38;;;;;;;7.8;5.8;;;;;;;22.16;54.0498;939.3063;;;;
2023/06/26 05:30:03;;;;;;;8.3;5.8;;;;;;;22.18;56.02148;939.2913;;;;
2023/06/26 05:32:31;;;;;;;7.5;5.5;;;;;;;22.64;52.43066;939.3515;;;;
2023/06/26 05:34:56;;;;;;;6.5;5.5;;;;;;;22.98;51.86035;939.3226;;;;
2023/06/26 05:37:23;;;;;;;6.3;5.5;;;;;;;23.69;48.69531;939.2587;;;;
2023/06/26 05:40:16;;;;;;;7.5;5.4;;;;;;;23.86;48.86523;939.3387;;;;
2023/06/26 05:42:41;;;;;;;6.7;5;;;;;;;24.64;46.41797;939.2952;;;;
2023/06/26 05:45:06;;;;;;;8.1;5.8;;;;;;;24.55;46.72656;939.2971;;;;
2023/06/26 05:47:31;;;;;;;8.4;5.5;;;;;;;24.88;45.7334;939.285;;;;
2023/06/26 05:49:59;;;;;;;7.7;5.7;;;;;;;25.21;44.63477;939.2283;;;;
2023/06/26 05:52:24;;;;;;;6.9;5.1;;;;;;;25.4;45.20801;939.2894;;;;
2023/06/26 05:54:50;;;;;;;7.8;5.3;;;;;;;25.87;43.88574;939.2549;;;;
2023/06/26 05:57:15;;;;;;;6;4.8;;;;;;;26.28;42.94238;939.2374;;;;
2023/06/26 05:59:40;;;;;;;7.8;5.5;;;;;;;27.24;41.2207;939.2558;;;;
2023/06/26 06:02:05;;;;;;;6;4.7;;;;;;;27.16;40.37207;939.2335;;;;
2023/06/26 06:04:31;;;;;;;6.1;5.1;;;;;;;28.67;39.61426;939.1864;;;;
2023/06/26 06:06:56;;;;;;;5.7;4.7;;;;;;;28.97;38.73633;939.1713;;;;
2023/06/26 06:09:21;;;;;;;8.4;5.4;;;;;;;29.19;36.64746;939.1473;;;;
2023/06/26 06:11:49;;;;;;;5.8;4.5;;;;;;;29.6;36.31152;939.1392;;;;
2023/06/26 06:14:14;;;;;;;5.4;4.8;;;;;;;29.32;36.64551;939.0778;;;;
2023/06/26 06:16:39;;;;;;;6.2;5.2;;;;;;;29.97;36.49609;939.051;;;;
2023/06/26 06:19:06;;;;;;;5.9;4.8;;;;;;;29.41;37.68945;939.0726;;;;
2023/06/26 06:21:31;;;;;;;6;4.9;;;;;;;28.72;39.14355;939.1074;;;;
2023/06/26 06:23:56;;;;;;;6.8;5.3;;;;;;;29.81;37.13867;939.0908;;;;
2023/06/26 06:26:24;;;;;;;6.1;5;;;;;;;28.84;37.83301;939.0675;;;;
2023/06/26 06:28:49;;;;;;;5.5;4.9;;;;;;;28.33;37.84961;939.0873;;;;
2023/06/26 06:31:15;;;;;;;6;4.8;;;;;;;28.27;38.42676;939.098;;;;
2023/06/26 06:33:40;;;;;;;6.3;5.1;;;;;;;29.1;38.06836;939.073;;;;
2023/06/26 06:36:08;;;;;;;6.6;4.9;;;;;;;29.79;35.70605;939.0764;;;;
2023/06/26 06:38:33;;;;;;;5.4;4.8;;;;;;;28.23;37.61523;939.0261;;;;
2023/06/26 06:40:59;;;;;;;5.8;5;;;;;;;28.54;37.80762;939.0377;;;;
2023/06/26 06:43:24;;;;;;;7.4;5.4;;;;;;;28.77;37.82715;939.0009;;;;
2023/06/26 06:45:49;;;;;;;6.7;5.4;;;;;;;29.79;37.45996;939.0435;;;;
2023/06/26 06:48:14;;;;;;;7.2;5.2;;;;;;;29.81;36.81738;939.0767;;;;
2023/06/26 06:50:41;;;;;;;6;4.9;;;;;;;29.04;37.77832;939.0764;;;;
2023/06/26 06:53:06;;;;;;;5.8;5.2;;;;;;;28.22;40.43164;939.0133;;;;
2023/06/26 06:55:33;;;;;;;8.2;5.4;;;;;;;26.27;45.13086;939.0289;;;;
2023/06/26 06:57:58;;;;;;;7.1;5.2;;;;;;;26.41;46.42285;938.9773;;;;
2023/06/26 07:00:26;;;;;;;7.1;6;;;;;;;27.49;43.72461;938.9559;;;;
2023/06/26 07:02:51;;;;;;;6.4;5.1;;;;;;;28.65;40.32617;938.9739;;;;
2023/06/26 07:05:45;;;;;;;7.7;5.3;;;;;;;28.88;39.91797;938.9483;;;;
2023/06/26 07:08:13;;;;;;;5.3;4.8;;;;;;;30.61;36.92969;938.9446;;;;
2023/06/26 07:10:37;;;;;;;7;5.4;;;;;;;31.01;37.66797;938.9088;;;;
2023/06/26 07:13:02;;;;;;;7.7;5.4;;;;;;;31.2;36.2832;938.9286;;;;
2023/06/26 07:15:30;;;;;;;7.3;4.9;;;;;;;31.95;34.00781;938.8445;;;;
2023/06/26 07:17:54;;;;;;;5.9;4.8;;;;;;;32.29;33.49414;938.7988;;;;
2023/06/26 07:20:20;;;;;;;5.3;4.8;;;;;;;32.41;33.53809;938.8461;;;;
2023/06/26 07:22:45;;;;;;;7;5.3;;;;;;;32.02;36.97266;938.7599;;;;
2023/06/26 07:25:15;;;;;;;5.8;5.2;;;;;;;32.47;33.81836;938.8418;;;;
2023/06/26 07:27:44;;;;;;;5.7;5.1;;;;;;;30.98;35.38184;938.7411;;;;
2023/06/26 07:30:08;;;;;;;6.2;4.8;;;;;;;30.72;35.0625;938.7455;;;;
2023/06/26 07:32:34;;;;;;;7.8;5.1;;;;;;;32.16;35.95313;938.7916;;;;
2023/06/26 07:35:00;;;;;;;7.3;5.1;;;;;;;32.88;33.25977;938.7506;;;;
2023/06/26 07:37:28;;;;;;;6.3;5.1;;;;;;;32.96;33.29004;938.7444;;;;
2023/06/26 07:39:55;;;;;;;5.9;5.2;;;;;;;30.18;39.48535;938.6026;;;;
2023/06/26 07:42:20;;;;;;;5.9;4.9;;;;;;;31.64;38.48633;938.684;;;;
2023/06/26 07:44:50;;;;;;;6.7;5;;;;;;;32.54;36.94336;938.7015;;;;
2023/06/26 07:47:15;;;;;;;6.7;5;;;;;;;32.45;37.77539;938.6309;;;;
2023/06/26 07:49:40;;;;;;;7.7;5.4;;;;;;;34.18;36.39063;938.614;;;;
2023/06/26 07:52:05;;;;;;;6;4.9;;;;;;;35.36;31.94531;938.662;;;;
2023/06/26 07:54:32;;;;;;;7.5;4.8;;;;;;;35.43;31.51465;938.6728;;;;
2023/06/26 07:56:57;;;;;;;8.3;4.8;;;;;;;34.99;30.39941;938.6153;;;;
2023/06/26 07:59:24;;;;;;;4.8;4.3;;;;;;;33.77;29.19922;938.5212;;;;
2023/06/26 08:01:49;;;;;;;4.3;3.8;;;;;;;35.46;27.66504;938.6202;;;;
2023/06/26 08:04:15;;;;;;;3.9;3.4;;;;;;;34.33;29.45117;938.4916;;;;
2023/06/26 08:06:44;;;;;;;4;3.6;;;;;;;34.66;28.40039;938.5669;;;;
2023/06/26 08:09:09;;;;;;;3.9;3.5;;;;;;;34.46;26.12305;938.5198;;;;
2023/06/26 08:11:34;;;;;;;3.8;3.5;;;;;;;33.45;26.71387;938.5322;;;;
2023/06/26 08:13:59;;;;;;;3.6;3.2;;;;;;;33.87;28.00195;938.498;;;;
2023/06/26 08:16:25;;;;;;;3.6;3.2;;;;;;;33.8;26.80664;938.527;;;;
2023/06/26 08:18:51;;;;;;;3.3;3;;;;;;;33.85;28.13281;938.5183;;;;
2023/06/26 08:21:16;;;;;;;4.8;3.4;;;;;;;34.37;26.53906;938.4698;;;;
2023/06/26 08:23:41;;;;;;;4.7;3.4;;;;;;;34.19;27.58887;938.3639;;;;
2023/06/26 08:26:06;;;;;;;3.5;3.2;;;;;;;33.17;29.02832;938.4622;;;;
2023/06/26 08:28:32;;;;;;;3.7;3.4;;;;;;;32.35;28.3291;938.476;;;;
2023/06/26 08:30:57;;;;;;;3.4;3.1;;;;;;;32.91;28.54395;938.4166;;;;
2023/06/26 08:33:23;;;;;;;4;3.6;;;;;;;32.86;27.4834;938.4568;;;;
2023/06/26 08:35:49;;;;;;;4;3.5;;;;;;;34.15;26.71875;938.4644;;;;
2023/06/26 08:38:16;;;;;;;3.6;3.3;;;;;;;34.38;26.12988;938.4193;;;;
2023/06/26 08:40:41;;;;;;;3.8;2.9;;;;;;;33.41;26.81934;938.4146;;;;
2023/06/26 08:43:06;;;;;;;4.1;3.1;;;;;;;33.62;26.45996;938.4093;;;;
2023/06/26 08:45:31;;;;;;;4.2;3.3;;;;;;;33.91;25.74219;938.3172;;;;
2023/06/26 08:47:57;;;;;;;3.3;3;;;;;;;34.24;25.66406;938.3617;;;;
2023/06/26 08:50:23;;;;;;;5.3;3.2;;;;;;;34.38;25.67188;938.3533;;;;
2023/06/26 08:52:48;;;;;;;3.6;3.2;;;;;;;35.24;26.50488;938.4048;;;;
2023/06/26 08:55:13;;;;;;;3.5;3.1;;;;;;;33.91;25.58594;938.3232;;;;
2023/06/26 08:57:38;;;;;;;3.4;3;;;;;;;33.26;27.84473;938.3463;;;;
2023/06/26 09:00:04;;;;;;;3.3;3;;;;;;;32.88;26.03125;938.2473;;;;
2023/06/26 09:02:30;;;;;;;3.9;3.2;;;;;;;32.95;26.6123;938.3309;;;;
2023/06/26 09:04:57;;;;;;;3.1;2.8;;;;;;;32.82;26.83301;938.2782;;;;
2023/06/26 09:07:22;;;;;;;3.6;3;;;;;;;33.16;27.46582;938.1828;;;;
2023/06/26 09:09:47;;;;;;;4.8;2.9;;;;;;;34.39;25.5166;938.1644;;;;
2023/06/26 09:12:13;;;;;;;3.9;2.9;;;;;;;33.91;28.38965;938.192;;;;
2023/06/26 09:14:38;;;;;;;3.7;3.3;;;;;;;34.02;26.50684;938.1301;;;;
2023/06/26 09:17:03;;;;;;;3.2;2.9;;;;;;;33.61;28.02246;938.1547;;;;
2023/06/26 09:19:28;;;;;;;3.1;2.8;;;;;;;32.89;28.26563;938.1998;;;;
2023/06/26 09:21:54;;;;;;;3.2;2.9;;;;;;;32.73;28.91602;938.1186;;;;
2023/06/26 09:24:20;;;;;;;3.3;3;;;;;;;31.49;30.50195;938.1476;;;;
2023/06/26 09:26:45;;;;;;;3.6;3.2;;;;;;;31.05;30.55469;938.1531;;;;
2023/06/26 09:29:10;;;;;;;3.5;3.2;;;;;;;30.72;30.1748;938.1529;;;;
2023/06/26 09:31:37;;;;;;;3.9;3.5;;;;;;;30.39;31.12109;938.0998;;;;
2023/06/26 09:34:02;;;;;;;4.4;3.2;;;;;;;30.11;30.57617;938.1033;;;;
2023/06/26 09:36:27;;;;;;;3.4;2.9;;;;;;;29.98;32.34473;938.0609;;;;
2023/06/26 09:38:52;;;;;;;4.2;3;;;;;;;29.88;31.4541;938.0647;;;;
2023/06/26 09:41:19;;;;;;;3.3;3;;;;;;;29.78;33.51172;937.9581;;;;
2023/06/26 09:43:43;;;;;;;3.6;3.1;;;;;;;29.86;30.22461;938.0158;;;;
2023/06/26 09:46:11;;;;;;;3.3;3;;;;;;;29.95;30.29102;937.9945;;;;
2023/06/26 09:48:36;;;;;;;4.4;2.8;;;;;;;30.27;29.32129;938.0608;;;;
2023/06/26 09:51:01;;;;;;;3.6;3.1;;;;;;;30.03;30.48633;938.048;;;;
2023/06/26 09:53:29;;;;;;;3.8;2.9;;;;;;;29.99;31.93945;938.0543;;;;
2023/06/26 09:55:53;;;;;;;4.2;3.4;;;;;;;30.36;31.28516;938.0936;;;;
2023/06/26 09:58:18;;;;;;;4.1;3.1;;;;;;;30.65;29.07129;938.096;;;;
2023/06/26 10:00:45;;;;;;;3.4;3.1;;;;;;;30.38;29.36426;937.9995;;;;
2023/06/26 10:03:11;;;;;;;6.8;4.2;;;;;;;30.85;31.72559;938.0309;;;;
2023/06/26 10:05:36;;;;;;;6.8;3.1;;;;;;;31.22;32.50488;937.9647;;;;
2023/06/26 10:08:01;;;;;;;4.2;3.1;;;;;;;31.21;31.34375;938.0803;;;;
2023/06/26 10:10:28;;;;;;;3.8;3.4;;;;;;;30.72;30.92773;937.92;;;;
2023/06/26 10:12:53;;;;;;;4;3;;;;;;;30.58;30.82227;938.0372;;;;
2023/06/26 10:15:19;;;;;;;4.2;3.1;;;;;;;30.93;29.62695;937.9485;;;;
2023/06/26 10:17:48;;;;;;;3.3;3;;;;;;;31.01;30.32617;937.9807;;;;
2023/06/26 10:20:13;;;;;;;5.2;3.4;;;;;;;30.71;32.67188;937.925;;;;
2023/06/26 10:22:38;;;;;;;3.8;3.4;;;;;;;30.52;34.05566;937.9253;;;;
2023/06/26 10:25:03;;;;;;;4.2;3.4;;;;;;;30.63;32.33203;938.0159;;;;
2023/06/26 10:27:29;;;;;;;3.7;3.1;;;;;;;30.59;32.14941;937.9724;;;;
2023/06/26 10:29:54;;;;;;;3.4;3;;;;;;;30.94;30.36914;937.905;;;;
2023/06/26 10:32:19;;;;;;;4;3.4;;;;;;;31.04;30.49512;937.9182;;;;
2023/06/26 10:34:46;;;;;;;3.4;3.1;;;;;;;30.93;30.5957;937.921;;;;
2023/06/26 10:37:11;;;;;;;5.5;3.2;;;;;;;30.87;31.08105;937.9258;;;;
2023/06/26 10:39:38;;;;;;;3.6;3;;;;;;;30.72;30.7959;937.8738;;;;
2023/06/26 10:42:04;;;;;;;3.8;3.2;;;;;;;30.81;31.71094;937.8486;;;;
2023/06/26 10:44:32;;;;;;;4.9;3.4;;;;;;;30.8;30.16895;937.8522;;;;
2023/06/26 10:46:58;;;;;;;6.4;3.7;;;;;;;30.91;32.28027;937.8867;;;;
2023/06/26 10:49:22;;;;;;;6;3.4;;;;;;;31.02;30.70898;937.8647;;;;
2023/06/26 10:51:48;;;;;;;5.1;3.7;;;;;;;30.89;29.81543;937.7724;;;;
2023/06/26 10:54:13;;;;;;;3.8;3.4;;;;;;;30.54;31.76367;937.7667;;;;
2023/06/26 10:56:39;;;;;;;4.1;3.7;;;;;;;30.47;34.70898;937.8006;;;;
2023/06/26 10:59:05;;;;;;;4.7;3.2;;;;;;;31.08;34.26563;937.81;;;;
2023/06/26 11:01:32;;;;;;;3.9;3.5;;;;;;;31.33;35.56445;937.7756;;;;
2023/06/26 11:03:57;;;;;;;4.7;3.4;;;;;;;30.89;33.8916;937.7544;;;;
2023/06/26 11:06:22;;;;;;;4;3.6;;;;;;;30.69;34.97754;937.7249;;;;
2023/06/26 11:08:47;;;;;;;5.2;3.8;;;;;;;30.18;32.90723;937.6986;;;;
2023/06/26 11:11:12;;;;;;;4.2;3.7;;;;;;;29.91;34.50977;937.7441;;;;
2023/06/26 11:13:37;;;;;;;4.7;3.6;;;;;;;29.92;34.79785;937.7578;;;;
2023/06/26 11:16:05;;;;;;;4;3.6;;;;;;;30.09;34.84668;937.7028;;;;
2023/06/26 11:18:29;;;;;;;3.9;3.5;;;;;;;29.85;35.2334;937.7609;;;;
2023/06/26 11:20:56;;;;;;;4.8;3.6;;;;;;;30.01;32.38281;937.7115;;;;
2023/06/26 11:23:21;;;;;;;4.1;3.7;;;;;;;30.24;31.88574;937.6802;;;;
2023/06/26 11:25:47;;;;;;;4.8;4;;;;;;;30.6;32.3418;937.6577;;;;
2023/06/26 11:28:13;;;;;;;4;3.6;;;;;;;30.94;33.75293;937.6665;;;;
2023/06/26 11:30:39;;;;;;;5.4;3.6;;;;;;;31.07;31.20215;937.6238;;;;
2023/06/26 11:33:04;;;;;;;4.4;4;;;;;;;30.57;32.6748;937.5558;;;;
2023/06/26 11:35:31;;;;;;;4.1;3.7;;;;;;;29.76;36.25293;937.6261;;;;
2023/06/26 11:37:57;;;;;;;5.3;4;;;;;;;29.73;36.16699;937.5996;;;;
2023/06/26 11:40:26;;;;;;;4.8;3.5;;;;;;;29.98;35.21973;937.639;;;;
2023/06/26 11:42:47;;;;;;;4.8;3.8;;;;;;;30.06;33.78223;937.6351;;;;
2023/06/26 11:45:12;;;;;;;4;3.6;;;;;;;30.26;34.23828;937.6742;;;;
2023/06/26 11:47:37;;;;;;;4.2;3.6;;;;;;;30.43;32.16211;937.6519;;;;
2023/06/26 11:50:04;;;;;;;5.1;3.9;;;;;;;30.75;33.89355;937.6594;;;;
2023/06/26 11:52:29;;;;;;;4.3;3.9;;;;;;;31.36;33.84375;937.6989;;;;
2023/06/26 11:54:54;;;;;;;6.6;4.5;;;;;;;31.57;34.35059;937.684;;;;
2023/06/26 11:57:21;;;;;;;5.9;4.4;;;;;;;31.97;32.11523;937.6465;;;;
2023/06/26 11:59:46;;;;;;;5.5;3.9;;;;;;;31.6;33.76563;937.6642;;;;
2023/06/26 12:02:11;;;;;;;4.4;3.8;;;;;;;31.2;35.63867;937.6462;;;;
2023/06/26 12:04:37;;;;;;;5.3;4.2;;;;;;;31.33;35.29004;937.5536;;;;
2023/06/26 12:07:03;;;;;;;5.4;4.3;;;;;;;31.6;34.95117;937.5846;;;;
2023/06/26 12:09:27;;;;;;;4.6;3.8;;;;;;;31.59;33.59863;937.6008;;;;
2023/06/26 12:11:54;;;;;;;4.5;3.8;;;;;;;31.35;36.90625;937.5298;;;;
2023/06/26 12:14:19;;;;;;;4.6;4;;;;;;;30.81;33.58691;937.5762;;;;
2023/06/26 12:16:46;;;;;;;4.7;4.1;;;;;;;30.79;37.48242;937.5161;;;;
2023/06/26 12:19:11;;;;;;;4.8;4.3;;;;;;;30.78;36.59766;937.5287;;;;
2023/06/26 12:21:36;;;;;;;4.4;3.8;;;;;;;30.76;35.63965;937.4821;;;;
2023/06/26 12:24:01;;;;;;;4;3.6;;;;;;;30.57;37.47656;937.5033;;;;
2023/06/26 12:26:28;;;;;;;5.2;4.2;;;;;;;30.15;38.77832;937.4719;;;;
2023/06/26 12:28:53;;;;;;;4.9;4.2;;;;;;;30.06;36.62305;937.4285;;;;
2023/06/26 12:31:19;;;;;;;5.3;3.9;;;;;;;30.22;35.23828;937.4807;;;;
2023/06/26 12:33:44;;;;;;;5;3.9;;;;;;;30.34;35.22363;937.5359;;;;
2023/06/26 12:36:09;;;;;;;5.6;4;;;;;;;30.34;34.28125;937.5619;;;;
2023/06/26 12:38:35;;;;;;;4.7;3.9;;;;;;;30.42;34;937.4833;;;;
2023/06/26 12:41:00;;;;;;;5.6;4;;;;;;;29.97;35.08789;937.4959;;;;
2023/06/26 12:43:25;;;;;;;5.9;4.2;;;;;;;29.49;34.57422;937.4699;;;;
2023/06/26 12:45:52;;;;;;;4.4;4;;;;;;;29.72;34.25781;937.4916;;;;
2023/06/26 12:48:18;;;;;;;5.4;4.1;;;;;;;30.25;32.49512;937.5402;;;;
2023/06/26 12:50:43;;;;;;;4.1;3.7;;;;;;;30.79;32.97656;937.5217;;;;
2023/06/26 12:53:08;;;;;;;5.4;4.1;;;;;;;31.27;32.19824;937.4314;;;;
2023/06/26 12:55:33;;;;;;;4.2;3.8;;;;;;;31.33;30.90918;937.4717;;;;
2023/06/26 12:57:58;;;;;;;5.4;3.9;;;;;;;31.19;31.6416;937.4495;;;;
2023/06/26 13:00:23;;;;;;;5.7;4.2;;;;;;;31.14;33.15723;937.421;;;;
2023/06/26 13:02:48;;;;;;;4.8;3.8;;;;;;;31.11;30.35645;937.4146;;;;
2023/06/26 13:05:13;;;;;;;4.7;4;;;;;;;30.95;31.00293;937.3914;;;;
2023/06/26 13:07:43;;;;;;;4.4;4;;;;;;;30.97;33.61035;937.4205;;;;
2023/06/26 13:10:08;;;;;;;3.8;3.4;;;;;;;31.13;34.98633;937.3839;;;;
2023/06/26 13:12:36;;;;;;;4.7;4;;;;;;;31.25;34.99512;937.3964;;;;
2023/06/26 13:15:01;;;;;;;5.2;4.1;;;;;;;31.24;35.85645;937.3286;;;;
2023/06/26 13:17:28;;;;;;;8;4.5;;;;;;;31.42;33.91992;937.2994;;;;
2023/06/26 13:19:53;;;;;;;4.9;4.4;;;;;;;31.74;32.79395;937.2302;;;;
2023/06/26 13:22:21;;;;;;;4.9;4.4;;;;;;;31.92;32.98633;937.2101;;;;
2023/06/26 13:24:46;;;;;;;5.4;4.9;;;;;;;32.12;32.48633;937.1768;;;;
2023/06/26 13:27:13;;;;;;;6;5.1;;;;;;;31.82;36.39453;937.1578;;;;
2023/06/26 13:29:38;;;;;;;5;4.5;;;;;;;31.67;34.63379;937.0833;;;;
2023/06/26 13:32:04;;;;;;;5.2;4.7;;;;;;;31.41;34.93652;937.1086;;;;
2023/06/26 13:34:29;;;;;;;5.1;4.6;;;;;;;31.14;33.00195;937.0675;;;;
2023/06/26 13:36:54;;;;;;;5.1;4.5;;;;;;;31.2;32.64648;937.0137;;;;
2023/06/26 13:39:19;;;;;;;6.2;4.5;;;;;;;30.85;36.51953;936.9792;;;;
2023/06/26 13:41:44;;;;;;;5.1;4.6;;;;;;;30.31;36.83398;937.0259;;;;
2023/06/26 13:44:10;;;;;;;4.8;4.3;;;;;;;30.04;37.03809;936.9877;;;;
2023/06/26 13:46:35;;;;;;;6.2;4.6;;;;;;;30.02;35.55762;936.9734;;;;
2023/06/26 13:49:01;;;;;;;6.1;5;;;;;;;30.23;36.00293;936.9586;;;;
2023/06/26 13:51:26;;;;;;;6.9;4.8;;;;;;;30.35;36.6582;936.9785;;;;
2023/06/26 13:53:54;;;;;;;6.6;4.9;;;;;;;30.54;36.55371;936.9659;;;;
2023/06/26 13:56:18;;;;;;;5.9;4.8;;;;;;;30.54;37.03125;937.0201;;;;
2023/06/26 13:58:44;;;;;;;7;5.1;;;;;;;30.7;35.4668;937.0372;;;;
2023/06/26 14:01:10;;;;;;;7.6;4.9;;;;;;;30.99;34.64063;937.0338;;;;
2023/06/26 14:03:36;;;;;;;6.9;4.9;;;;;;;31.29;32.62988;937.0112;;;;
2023/06/26 14:06:01;;;;;;;6.5;5;;;;;;;31.38;33.40234;936.9567;;;;
2023/06/26 14:08:27;;;;;;;8.1;5.1;;;;;;;31.18;33.56738;936.9441;;;;
2023/06/26 14:10:52;;;;;;;6.2;5.1;;;;;;;31.21;32.88672;936.9547;;;;
2023/06/26 14:13:19;;;;;;;6.7;5.3;;;;;;;31.1;32.65234;936.9299;;;;
2023/06/26 14:15:44;;;;;;;7.5;4.7;;;;;;;31.36;33.54395;937.0485;;;;
2023/06/26 14:18:09;;;;;;;6.1;5.4;;;;;;;31.45;29.81641;937.0355;;;;
2023/06/26 14:20:35;;;;;;;5.7;4.6;;;;;;;31.38;30.625;937.1309;;;;
2023/06/26 14:23:02;;;;;;;5.3;4.8;;;;;;;31.36;31.37891;937.1163;;;;
2023/06/26 14:25:27;;;;;;;5.9;4.9;;;;;;;31.39;30.81836;937.0564;;;;